JST514 YMML-YSSY
Flight info
| Callsign | JST514 |
|---|---|
| Flight time | 1h 4m |
| Altitude | 35000 |
| Route | DOSEL Y59 RIVET |
| Aircraft | A20N/M-SDE2E3FGHIRWXY/LB1 |
Departure
| Time | 2026-04-22 03:40 |
|---|---|
| Airport | Melbourne Airport (YMML) |
Arrival
| Time | 2026-04-22 04:44 |
|---|---|
| Airport | Sydney Kingsford Smith International Airport (YSSY) |
| Time | Latitude | Longitude | Altitude | Speed | Heading |
|---|---|---|---|---|---|
| 2026-04-22 03:21 | -37.67531 | 144.84741 | 383 ft | 0 kts | 171° |
| 2026-04-22 03:32 | -37.67520 | 144.84740 | 383 ft | 2 kts | 173° |
| 2026-04-22 03:32 | -37.67505 | 144.84737 | 384 ft | 2 kts | 171° |
| 2026-04-22 03:33 | -37.67490 | 144.84735 | 385 ft | 2 kts | 188° |
| 2026-04-22 03:33 | -37.67476 | 144.84740 | 387 ft | 2 kts | 205° |
| 2026-04-22 03:33 | -37.67464 | 144.84750 | 388 ft | 2 kts | 224° |
| 2026-04-22 03:33 | -37.67455 | 144.84766 | 390 ft | 2 kts | 242° |
| 2026-04-22 03:34 | -37.67450 | 144.84779 | 391 ft | 0 kts | 258° |
| 2026-04-22 03:34 | -37.67450 | 144.84787 | 391 ft | 0 kts | 261° |
| 2026-04-22 03:34 | -37.67449 | 144.84793 | 391 ft | 0 kts | 261° |
| 2026-04-22 03:34 | -37.67448 | 144.84801 | 392 ft | 0 kts | 261° |
| 2026-04-22 03:35 | -37.67448 | 144.84807 | 392 ft | 0 kts | 261° |
| 2026-04-22 03:35 | -37.67447 | 144.84813 | 392 ft | 0 kts | 261° |
| 2026-04-22 03:35 | -37.67447 | 144.84816 | 392 ft | 0 kts | 261° |
| 2026-04-22 03:36 | -37.67447 | 144.84814 | 392 ft | 1 kts | 261° |
| 2026-04-22 03:37 | -37.67452 | 144.84778 | 390 ft | 7 kts | 260° |
| 2026-04-22 03:37 | -37.67463 | 144.84689 | 385 ft | 13 kts | 261° |
| 2026-04-22 03:37 | -37.67483 | 144.84564 | 379 ft | 15 kts | 238° |
| 2026-04-22 03:37 | -37.67585 | 144.84557 | 378 ft | 15 kts | 172° |
| 2026-04-22 03:38 | -37.67696 | 144.84578 | 376 ft | 17 kts | 171° |
| 2026-04-22 03:38 | -37.67816 | 144.84563 | 371 ft | 19 kts | 239° |
| 2026-04-22 03:38 | -37.67841 | 144.84392 | 369 ft | 20 kts | 262° |
| 2026-04-22 03:38 | -37.67859 | 144.84219 | 368 ft | 20 kts | 263° |
| 2026-04-22 03:39 | -37.67877 | 144.84042 | 365 ft | 21 kts | 272° |
| 2026-04-22 03:39 | -37.67777 | 144.83952 | 368 ft | 19 kts | 351° |
| 2026-04-22 03:39 | -37.67489 | 144.83899 | 377 ft | 73 kts | 352° |
| 2026-04-22 03:39 | -37.66782 | 144.83766 | 401 ft | 131 kts | 351° |
| 2026-04-22 03:40 | -37.65743 | 144.83581 | 575 ft | 162 kts | 354° |
| 2026-04-22 03:40 | -37.64623 | 144.83395 | 1189 ft | 163 kts | 354° |
| 2026-04-22 03:40 | -37.63509 | 144.83202 | 1876 ft | 164 kts | 352° |
| 2026-04-22 03:40 | -37.62381 | 144.82959 | 2441 ft | 172 kts | 351° |
| 2026-04-22 03:41 | -37.61134 | 144.82686 | 2879 ft | 189 kts | 350° |
| 2026-04-22 03:41 | -37.59786 | 144.82436 | 3310 ft | 207 kts | 357° |
| 2026-04-22 03:41 | -37.58271 | 144.82727 | 3657 ft | 232 kts | 21° |
| 2026-04-22 03:41 | -37.56744 | 144.83614 | 4176 ft | 250 kts | 26° |
| 2026-04-22 03:42 | -37.55154 | 144.84607 | 4762 ft | 265 kts | 26° |
| 2026-04-22 03:42 | -37.53486 | 144.85645 | 5581 ft | 270 kts | 26° |
| 2026-04-22 03:42 | -37.51772 | 144.86702 | 6184 ft | 284 kts | 26° |
| 2026-04-22 03:42 | -37.49933 | 144.87828 | 6660 ft | 303 kts | 26° |
| 2026-04-22 03:43 | -37.47971 | 144.89021 | 7110 ft | 321 kts | 26° |
| 2026-04-22 03:43 | -37.45934 | 144.90262 | 7658 ft | 335 kts | 27° |
| 2026-04-22 03:43 | -37.43955 | 144.91846 | 8450 ft | 338 kts | 40° |
| 2026-04-22 03:43 | -37.42321 | 144.93953 | 9275 ft | 340 kts | 53° |
| 2026-04-22 03:44 | -37.40928 | 144.96347 | 10064 ft | 343 kts | 56° |
| 2026-04-22 03:44 | -37.39560 | 144.98811 | 10809 ft | 347 kts | 56° |
| 2026-04-22 03:44 | -37.38179 | 145.01302 | 11536 ft | 350 kts | 55° |
| 2026-04-22 03:44 | -37.36790 | 145.03792 | 12222 ft | 355 kts | 54° |
| 2026-04-22 03:45 | -37.35356 | 145.06346 | 12911 ft | 359 kts | 54° |
| 2026-04-22 03:45 | -37.33907 | 145.08916 | 13599 ft | 362 kts | 54° |
| 2026-04-22 03:45 | -37.32449 | 145.11488 | 14273 ft | 366 kts | 54° |
| 2026-04-22 03:45 | -37.30970 | 145.14098 | 14919 ft | 370 kts | 54° |
| 2026-04-22 03:46 | -37.29465 | 145.16750 | 15566 ft | 374 kts | 54° |
| 2026-04-22 03:46 | -37.27969 | 145.19383 | 16185 ft | 378 kts | 54° |
| 2026-04-22 03:46 | -37.26433 | 145.22084 | 16801 ft | 381 kts | 54° |
| 2026-04-22 03:46 | -37.24887 | 145.24803 | 17405 ft | 385 kts | 54° |
| 2026-04-22 03:47 | -37.23327 | 145.27545 | 17977 ft | 389 kts | 53° |
| 2026-04-22 03:47 | -37.21757 | 145.30299 | 18554 ft | 393 kts | 53° |
| 2026-04-22 03:47 | -37.20162 | 145.33098 | 19185 ft | 395 kts | 53° |
| 2026-04-22 03:47 | -37.18554 | 145.35913 | 19789 ft | 397 kts | 53° |
| 2026-04-22 03:48 | -37.16951 | 145.38722 | 20370 ft | 399 kts | 53° |
| 2026-04-22 03:48 | -37.15340 | 145.41540 | 20931 ft | 402 kts | 53° |
| 2026-04-22 03:48 | -37.13701 | 145.44403 | 21490 ft | 404 kts | 53° |
| 2026-04-22 03:48 | -37.12073 | 145.47243 | 22017 ft | 407 kts | 53° |
| 2026-04-22 03:49 | -37.10409 | 145.50146 | 22543 ft | 410 kts | 53° |
| 2026-04-22 03:49 | -37.08758 | 145.53023 | 23053 ft | 412 kts | 53° |
| 2026-04-22 03:49 | -37.07067 | 145.55968 | 23494 ft | 417 kts | 53° |
| 2026-04-22 03:49 | -37.05367 | 145.58925 | 23711 ft | 426 kts | 53° |
| 2026-04-22 03:50 | -37.03615 | 145.61968 | 24057 ft | 431 kts | 53° |
| 2026-04-22 03:50 | -37.01873 | 145.64993 | 24482 ft | 434 kts | 53° |
| 2026-04-22 03:50 | -37.00095 | 145.68079 | 24909 ft | 436 kts | 52° |
| 2026-04-22 03:50 | -36.98318 | 145.71161 | 25301 ft | 439 kts | 52° |
| 2026-04-22 03:51 | -36.96520 | 145.74271 | 25678 ft | 442 kts | 52° |
| 2026-04-22 03:51 | -36.94729 | 145.77367 | 26024 ft | 445 kts | 52° |
| 2026-04-22 03:51 | -36.92904 | 145.80518 | 26376 ft | 448 kts | 52° |
| 2026-04-22 03:51 | -36.91090 | 145.83650 | 26711 ft | 450 kts | 52° |
| 2026-04-22 03:52 | -36.89239 | 145.86841 | 27046 ft | 453 kts | 52° |
| 2026-04-22 03:52 | -36.87375 | 145.90051 | 27390 ft | 455 kts | 52° |
| 2026-04-22 03:52 | -36.85500 | 145.93277 | 27784 ft | 455 kts | 52° |
| 2026-04-22 03:52 | -36.83649 | 145.96458 | 28230 ft | 454 kts | 53° |
| 2026-04-22 03:53 | -36.81814 | 145.99612 | 28656 ft | 453 kts | 52° |
| 2026-04-22 03:53 | -36.79944 | 146.02823 | 29078 ft | 453 kts | 53° |
| 2026-04-22 03:53 | -36.78104 | 146.05978 | 29469 ft | 453 kts | 52° |
| 2026-04-22 03:53 | -36.76247 | 146.09158 | 29844 ft | 453 kts | 52° |
| 2026-04-22 03:54 | -36.74412 | 146.12295 | 30195 ft | 454 kts | 52° |
| 2026-04-22 03:54 | -36.72532 | 146.15511 | 30547 ft | 454 kts | 52° |
| 2026-04-22 03:54 | -36.70689 | 146.18658 | 30905 ft | 454 kts | 52° |
| 2026-04-22 03:54 | -36.68823 | 146.21843 | 31243 ft | 455 kts | 52° |
| 2026-04-22 03:55 | -36.66959 | 146.25021 | 31568 ft | 455 kts | 52° |
| 2026-04-22 03:55 | -36.65093 | 146.28198 | 31899 ft | 455 kts | 52° |
| 2026-04-22 03:55 | -36.63242 | 146.31348 | 32221 ft | 455 kts | 52° |
| 2026-04-22 03:55 | -36.61376 | 146.34520 | 32529 ft | 456 kts | 52° |
| 2026-04-22 03:56 | -36.59514 | 146.37682 | 32805 ft | 456 kts | 52° |
| 2026-04-22 03:56 | -36.57637 | 146.40868 | 33096 ft | 457 kts | 52° |
| 2026-04-22 03:56 | -36.55767 | 146.44037 | 33394 ft | 456 kts | 52° |
| 2026-04-22 03:56 | -36.53893 | 146.47212 | 33672 ft | 456 kts | 52° |
| 2026-04-22 03:57 | -36.52023 | 146.50375 | 33923 ft | 457 kts | 52° |
| 2026-04-22 03:57 | -36.50126 | 146.53584 | 34145 ft | 458 kts | 52° |
| 2026-04-22 03:57 | -36.48259 | 146.56737 | 34375 ft | 459 kts | 52° |
| 2026-04-22 03:57 | -36.46355 | 146.59949 | 34618 ft | 460 kts | 52° |
| 2026-04-22 03:58 | -36.44463 | 146.63136 | 34858 ft | 461 kts | 52° |
| 2026-04-22 03:58 | -36.42562 | 146.66338 | 35082 ft | 462 kts | 52° |
| 2026-04-22 03:58 | -36.40636 | 146.69582 | 35284 ft | 462 kts | 52° |
| 2026-04-22 03:58 | -36.38729 | 146.72786 | 35305 ft | 465 kts | 52° |
| 2026-04-22 03:59 | -36.34876 | 146.79251 | 35302 ft | 473 kts | 52° |
| 2026-04-22 03:59 | -36.30941 | 146.85841 | 35300 ft | 476 kts | 52° |
| 2026-04-22 04:00 | -36.27027 | 146.92387 | 35303 ft | 476 kts | 52° |
| 2026-04-22 04:00 | -36.23074 | 146.98982 | 35291 ft | 477 kts | 52° |
| 2026-04-22 04:01 | -36.19126 | 147.05557 | 35278 ft | 478 kts | 52° |
| 2026-04-22 04:01 | -36.15169 | 147.12140 | 35279 ft | 478 kts | 52° |
| 2026-04-22 04:02 | -36.11217 | 147.18700 | 35281 ft | 477 kts | 52° |
| 2026-04-22 04:02 | -36.07232 | 147.25301 | 35283 ft | 478 kts | 52° |
| 2026-04-22 04:03 | -36.03270 | 147.31845 | 35283 ft | 478 kts | 52° |
| 2026-04-22 04:03 | -35.99275 | 147.38435 | 35278 ft | 480 kts | 52° |
| 2026-04-22 04:04 | -35.95301 | 147.44977 | 35279 ft | 480 kts | 52° |
| 2026-04-22 04:04 | -35.91303 | 147.51546 | 35279 ft | 480 kts | 52° |
| 2026-04-22 04:05 | -35.87271 | 147.58159 | 35277 ft | 481 kts | 52° |
| 2026-04-22 04:05 | -35.83258 | 147.64728 | 35281 ft | 482 kts | 52° |
| 2026-04-22 04:06 | -35.79210 | 147.71349 | 35278 ft | 482 kts | 52° |
| 2026-04-22 04:06 | -35.75199 | 147.77890 | 35284 ft | 482 kts | 52° |
| 2026-04-22 04:07 | -35.71149 | 147.84483 | 35284 ft | 483 kts | 52° |
| 2026-04-22 04:07 | -35.67115 | 147.91036 | 35279 ft | 483 kts | 52° |
| 2026-04-22 04:08 | -35.63052 | 147.97623 | 35279 ft | 483 kts | 52° |
| 2026-04-22 04:08 | -35.58993 | 148.04193 | 35282 ft | 483 kts | 52° |
| 2026-04-22 04:09 | -35.54957 | 148.10710 | 35284 ft | 483 kts | 52° |
| 2026-04-22 04:09 | -35.50874 | 148.17294 | 35286 ft | 484 kts | 52° |
| 2026-04-22 04:10 | -35.46795 | 148.23859 | 35285 ft | 484 kts | 52° |
| 2026-04-22 04:10 | -35.42728 | 148.30388 | 35284 ft | 485 kts | 52° |
| 2026-04-22 04:11 | -35.38621 | 148.36977 | 35291 ft | 486 kts | 52° |
| 2026-04-22 04:11 | -35.34525 | 148.43530 | 35291 ft | 487 kts | 53° |
| 2026-04-22 04:12 | -35.30409 | 148.50107 | 35288 ft | 487 kts | 53° |
| 2026-04-22 04:12 | -35.26314 | 148.56636 | 35296 ft | 487 kts | 53° |
| 2026-04-22 04:13 | -35.22169 | 148.63231 | 35298 ft | 487 kts | 53° |
| 2026-04-22 04:13 | -35.18045 | 148.69780 | 35295 ft | 488 kts | 52° |
| 2026-04-22 04:14 | -35.13913 | 148.76332 | 35296 ft | 488 kts | 52° |
| 2026-04-22 04:14 | -35.09741 | 148.82930 | 35290 ft | 489 kts | 52° |
| 2026-04-22 04:15 | -35.05580 | 148.89504 | 35289 ft | 490 kts | 52° |
| 2026-04-22 04:15 | -35.01398 | 148.96094 | 35279 ft | 491 kts | 52° |
| 2026-04-22 04:16 | -34.95148 | 149.05925 | 35290 ft | 492 kts | 52° |
| 2026-04-22 04:17 | -34.90940 | 149.12527 | 35300 ft | 493 kts | 52° |
| 2026-04-22 04:17 | -34.86732 | 149.19116 | 35300 ft | 492 kts | 52° |
| 2026-04-22 04:18 | -34.82520 | 149.25699 | 35296 ft | 492 kts | 52° |
| 2026-04-22 04:18 | -34.78320 | 149.32246 | 34614 ft | 494 kts | 53° |
| 2026-04-22 04:18 | -34.76221 | 149.35533 | 33888 ft | 495 kts | 54° |
| 2026-04-22 04:19 | -34.74244 | 149.38934 | 33250 ft | 492 kts | 58° |
| 2026-04-22 04:19 | -34.72451 | 149.42493 | 32636 ft | 488 kts | 63° |
| 2026-04-22 04:19 | -34.70861 | 149.46068 | 32024 ft | 484 kts | 64° |
| 2026-04-22 04:19 | -34.69302 | 149.49669 | 31397 ft | 481 kts | 65° |
| 2026-04-22 04:20 | -34.67768 | 149.53221 | 30788 ft | 478 kts | 65° |
| 2026-04-22 04:20 | -34.66217 | 149.56798 | 30133 ft | 476 kts | 65° |
| 2026-04-22 04:20 | -34.64684 | 149.60321 | 29482 ft | 473 kts | 65° |
| 2026-04-22 04:20 | -34.63144 | 149.63846 | 28811 ft | 470 kts | 65° |
| 2026-04-22 04:21 | -34.61629 | 149.67308 | 28119 ft | 469 kts | 64° |
| 2026-04-22 04:21 | -34.60100 | 149.70798 | 27417 ft | 467 kts | 65° |
| 2026-04-22 04:21 | -34.58584 | 149.74251 | 26723 ft | 465 kts | 65° |
| 2026-04-22 04:21 | -34.57056 | 149.77727 | 25985 ft | 464 kts | 65° |
| 2026-04-22 04:22 | -34.55549 | 149.81149 | 25369 ft | 459 kts | 65° |
| 2026-04-22 04:22 | -34.54060 | 149.84526 | 24895 ft | 452 kts | 65° |
| 2026-04-22 04:22 | -34.52582 | 149.87877 | 24396 ft | 446 kts | 65° |
| 2026-04-22 04:22 | -34.51143 | 149.91138 | 23886 ft | 441 kts | 65° |
| 2026-04-22 04:23 | -34.49710 | 149.94388 | 23373 ft | 437 kts | 65° |
| 2026-04-22 04:23 | -34.48276 | 149.97633 | 22863 ft | 432 kts | 65° |
| 2026-04-22 04:23 | -34.46860 | 150.00833 | 22363 ft | 428 kts | 66° |
| 2026-04-22 04:23 | -34.45463 | 150.03987 | 21870 ft | 424 kts | 66° |
| 2026-04-22 04:24 | -34.44096 | 150.07072 | 21386 ft | 420 kts | 66° |
| 2026-04-22 04:24 | -34.42720 | 150.10175 | 20888 ft | 416 kts | 66° |
| 2026-04-22 04:24 | -34.41361 | 150.13235 | 20397 ft | 412 kts | 66° |
| 2026-04-22 04:24 | -34.40011 | 150.16273 | 19912 ft | 408 kts | 66° |
| 2026-04-22 04:25 | -34.38675 | 150.19273 | 19415 ft | 405 kts | 66° |
| 2026-04-22 04:25 | -34.37344 | 150.22263 | 18927 ft | 401 kts | 66° |
| 2026-04-22 04:25 | -34.36035 | 150.25200 | 18426 ft | 397 kts | 66° |
| 2026-04-22 04:25 | -34.34731 | 150.28124 | 17934 ft | 393 kts | 66° |
| 2026-04-22 04:26 | -34.33439 | 150.31020 | 17446 ft | 390 kts | 66° |
| 2026-04-22 04:26 | -34.32161 | 150.33878 | 16976 ft | 386 kts | 66° |
| 2026-04-22 04:26 | -34.30878 | 150.36745 | 16465 ft | 383 kts | 66° |
| 2026-04-22 04:26 | -34.29637 | 150.39517 | 15965 ft | 379 kts | 66° |
| 2026-04-22 04:27 | -34.28377 | 150.42331 | 15461 ft | 375 kts | 66° |
| 2026-04-22 04:27 | -34.27158 | 150.45056 | 15022 ft | 370 kts | 66° |
| 2026-04-22 04:27 | -34.25938 | 150.47786 | 14679 ft | 362 kts | 66° |
| 2026-04-22 04:27 | -34.24758 | 150.50426 | 14235 ft | 359 kts | 66° |
| 2026-04-22 04:28 | -34.23582 | 150.53056 | 13770 ft | 356 kts | 66° |
| 2026-04-22 04:28 | -34.22414 | 150.55666 | 13311 ft | 353 kts | 65° |
| 2026-04-22 04:28 | -34.21245 | 150.58275 | 12844 ft | 350 kts | 65° |
| 2026-04-22 04:28 | -34.20096 | 150.60838 | 12381 ft | 347 kts | 65° |
| 2026-04-22 04:29 | -34.18942 | 150.63409 | 11828 ft | 347 kts | 65° |
| 2026-04-22 04:29 | -34.17806 | 150.65938 | 11330 ft | 344 kts | 64° |
| 2026-04-22 04:29 | -34.16670 | 150.68465 | 10782 ft | 344 kts | 64° |
| 2026-04-22 04:29 | -34.15532 | 150.70998 | 10190 ft | 344 kts | 64° |
| 2026-04-22 04:30 | -34.14398 | 150.73515 | 9626 ft | 343 kts | 64° |
| 2026-04-22 04:30 | -34.13264 | 150.76027 | 9432 ft | 334 kts | 64° |
| 2026-04-22 04:30 | -34.12167 | 150.78461 | 9236 ft | 334 kts | 64° |
| 2026-04-22 04:30 | -34.11057 | 150.80922 | 8986 ft | 333 kts | 64° |
| 2026-04-22 04:31 | -34.09943 | 150.83388 | 8743 ft | 331 kts | 64° |
| 2026-04-22 04:31 | -34.08852 | 150.85812 | 8512 ft | 331 kts | 64° |
| 2026-04-22 04:31 | -34.07764 | 150.88231 | 8260 ft | 330 kts | 64° |
| 2026-04-22 04:31 | -34.06685 | 150.90626 | 8053 ft | 318 kts | 64° |
| 2026-04-22 04:32 | -34.05650 | 150.92918 | 7874 ft | 306 kts | 64° |
| 2026-04-22 04:32 | -34.04649 | 150.95136 | 7702 ft | 300 kts | 64° |
| 2026-04-22 04:32 | -34.03655 | 150.97342 | 7532 ft | 300 kts | 64° |
| 2026-04-22 04:32 | -34.02570 | 150.99472 | 7351 ft | 302 kts | 51° |
| 2026-04-22 04:33 | -34.00899 | 151.01021 | 7174 ft | 307 kts | 26° |
| 2026-04-22 04:33 | -33.98808 | 151.01601 | 6998 ft | 311 kts | 1° |
| 2026-04-22 04:33 | -33.96663 | 151.01286 | 6835 ft | 312 kts | 350° |
| 2026-04-22 04:33 | -33.94539 | 151.00737 | 6664 ft | 311 kts | 348° |
| 2026-04-22 04:34 | -33.92422 | 151.00150 | 6491 ft | 310 kts | 348° |
| 2026-04-22 04:34 | -33.90318 | 150.99561 | 6319 ft | 309 kts | 348° |
| 2026-04-22 04:34 | -33.88236 | 150.98973 | 6102 ft | 303 kts | 348° |
| 2026-04-22 04:34 | -33.86204 | 150.98398 | 5873 ft | 295 kts | 348° |
| 2026-04-22 04:35 | -33.84322 | 150.97859 | 5658 ft | 287 kts | 348° |
| 2026-04-22 04:35 | -33.82475 | 150.97331 | 5444 ft | 280 kts | 348° |
| 2026-04-22 04:35 | -33.80581 | 150.96791 | 5224 ft | 276 kts | 348° |
| 2026-04-22 04:35 | -33.78705 | 150.96262 | 4999 ft | 276 kts | 348° |
| 2026-04-22 04:36 | -33.76849 | 150.95741 | 4777 ft | 276 kts | 348° |
| 2026-04-22 04:36 | -33.74960 | 150.95386 | 4543 ft | 271 kts | 4° |
| 2026-04-22 04:36 | -33.73198 | 150.95973 | 4363 ft | 257 kts | 34° |
| 2026-04-22 04:36 | -33.71971 | 150.97429 | 4186 ft | 243 kts | 63° |
| 2026-04-22 04:37 | -33.71282 | 150.99210 | 4020 ft | 233 kts | 71° |
| 2026-04-22 04:37 | -33.70717 | 151.01013 | 3843 ft | 226 kts | 72° |
| 2026-04-22 04:37 | -33.70189 | 151.02763 | 3676 ft | 219 kts | 73° |
| 2026-04-22 04:37 | -33.69683 | 151.04452 | 3544 ft | 210 kts | 76° |
| 2026-04-22 04:38 | -33.69583 | 151.06113 | 3389 ft | 197 kts | 109° |
| 2026-04-22 04:38 | -33.70215 | 151.07500 | 3272 ft | 185 kts | 129° |
| 2026-04-22 04:38 | -33.71020 | 151.08659 | 3245 ft | 181 kts | 132° |
| 2026-04-22 04:38 | -33.71871 | 151.09801 | 3131 ft | 181 kts | 133° |
| 2026-04-22 04:39 | -33.72713 | 151.10916 | 3009 ft | 181 kts | 136° |
| 2026-04-22 04:39 | -33.73735 | 151.11801 | 2957 ft | 181 kts | 152° |
| 2026-04-22 04:39 | -33.74900 | 151.12370 | 2950 ft | 182 kts | 161° |
| 2026-04-22 04:39 | -33.76125 | 151.12773 | 2950 ft | 182 kts | 165° |
| 2026-04-22 04:40 | -33.77361 | 151.13110 | 2948 ft | 182 kts | 166° |
| 2026-04-22 04:40 | -33.78616 | 151.13435 | 2829 ft | 181 kts | 167° |
| 2026-04-22 04:40 | -33.79817 | 151.13745 | 2600 ft | 176 kts | 167° |
| 2026-04-22 04:40 | -33.80993 | 151.14050 | 2365 ft | 170 kts | 167° |
| 2026-04-22 04:41 | -33.82132 | 151.14346 | 2130 ft | 159 kts | 167° |
| 2026-04-22 04:41 | -33.83157 | 151.14613 | 1941 ft | 144 kts | 166° |
| 2026-04-22 04:41 | -33.84111 | 151.14862 | 1768 ft | 138 kts | 166° |
| 2026-04-22 04:41 | -33.85046 | 151.15106 | 1592 ft | 137 kts | 166° |
| 2026-04-22 04:42 | -33.85959 | 151.15344 | 1413 ft | 133 kts | 166° |
| 2026-04-22 04:42 | -33.86867 | 151.15579 | 1243 ft | 131 kts | 166° |
| 2026-04-22 04:42 | -33.87755 | 151.15811 | 1072 ft | 131 kts | 167° |
| 2026-04-22 04:42 | -33.88637 | 151.16057 | 910 ft | 130 kts | 166° |
| 2026-04-22 04:43 | -33.89534 | 151.16289 | 744 ft | 130 kts | 167° |
| 2026-04-22 04:43 | -33.90423 | 151.16518 | 583 ft | 130 kts | 168° |
| 2026-04-22 04:43 | -33.91311 | 151.16740 | 397 ft | 130 kts | 167° |
| 2026-04-22 04:43 | -33.92202 | 151.16966 | 218 ft | 130 kts | 168° |
| 2026-04-22 04:44 | -33.93077 | 151.17194 | 53 ft | 129 kts | 168° |
| 2026-04-22 04:44 | -33.93893 | 151.17407 | 28 ft | 100 kts | 167° |
| 2026-04-22 04:44 | -33.94408 | 151.17543 | 28 ft | 51 kts | 169° |
| 2026-04-22 04:44 | -33.94735 | 151.17630 | 28 ft | 44 kts | 167° |
| 2026-04-22 04:45 | -33.95026 | 151.17702 | 28 ft | 37 kts | 167° |
| 2026-04-22 04:45 | -33.95153 | 151.17801 | 28 ft | 14 kts | 86° |
| 2026-04-22 04:45 | -33.95135 | 151.17900 | 28 ft | 11 kts | 69° |
| 2026-04-22 04:45 | -33.95071 | 151.17937 | 28 ft | 11 kts | 347° |
| 2026-04-22 04:46 | -33.94987 | 151.17914 | 28 ft | 12 kts | 348° |
| 2026-04-22 04:46 | -33.94896 | 151.17891 | 28 ft | 13 kts | 347° |
| 2026-04-22 04:46 | -33.94799 | 151.17866 | 28 ft | 14 kts | 347° |
| 2026-04-22 04:46 | -33.94696 | 151.17837 | 28 ft | 15 kts | 347° |
| 2026-04-22 04:47 | -33.94590 | 151.17809 | 28 ft | 16 kts | 348° |
| 2026-04-22 04:47 | -33.94479 | 151.17780 | 28 ft | 16 kts | 347° |
| 2026-04-22 04:47 | -33.94364 | 151.17746 | 28 ft | 17 kts | 345° |
| 2026-04-22 04:47 | -33.94247 | 151.17709 | 28 ft | 17 kts | 345° |
| 2026-04-22 04:48 | -33.94128 | 151.17673 | 28 ft | 17 kts | 346° |
| 2026-04-22 04:48 | -33.94005 | 151.17635 | 28 ft | 18 kts | 346° |
| 2026-04-22 04:48 | -33.93884 | 151.17633 | 28 ft | 17 kts | 44° |
| 2026-04-22 04:48 | -33.93836 | 151.17747 | 28 ft | 15 kts | 38° |
| 2026-04-22 04:49 | -33.93747 | 151.17778 | 28 ft | 11 kts | 14° |
| 2026-04-22 04:49 | -33.93664 | 151.17802 | 28 ft | 12 kts | 14° |
| 2026-04-22 04:49 | -33.93593 | 151.17822 | 28 ft | 8 kts | 6° |
| 2026-04-22 04:49 | -33.93569 | 151.17786 | 28 ft | 3 kts | 283° |
| 2026-04-22 04:50 | -33.93565 | 151.17767 | 28 ft | 0 kts | 281° |
| 2026-04-22 04:50 | -33.93565 | 151.17763 | 28 ft | 0 kts | 281° |